Time;durP1;ratioP1;P1;durP2;ratioP2;P2;SDS_P1;SDS_P2;PMS_P1;PMS_P2;Temp;Humidity;BMP_temperature;BMP_pressure;BME280_temperature;BME280_humidity;BME280_pressure;Samples;Min_cycle;Max_cycle;Signal;HPM_P1;HPM_P2
2022/10/04 00:01:51;;;;;;;;;;;;;;;9.17;66.35;100745.97;6155857;23;837;-75
2022/10/04 00:04:18;;;;;;;;;;;;;;;9.16;66.39;100744.31;6156740;23;1030;-75
2022/10/04 00:06:44;;;;;;;;;;;;;;;9.14;66.46;100759.00;6141513;23;1263;-75
2022/10/04 00:09:11;;;;;;;;;;;;;;;9.14;66.53;100764.38;6126894;23;1898;-75
2022/10/04 00:11:37;;;;;;;;;;;;;;;9.09;66.14;100757.75;6127121;23;813;-74
2022/10/04 00:14:04;;;;;;;;;;;;;;;9.06;66.03;100763.53;6101113;23;1578;-76
2022/10/04 00:16:31;;;;;;;;;;;;;;;9.04;65.76;100759.41;6127341;23;960;-76
2022/10/04 00:18:57;;;;;;;;;;;;;;;9.04;66.17;100757.53;6126674;23;866;-75
2022/10/04 00:21:24;;;;;;;;;;;;;;;9.03;66.01;100753.19;6128064;23;1007;-74
2022/10/04 00:23:50;;;;;;;;;;;;;;;9.02;66.07;100748.84;6100898;23;999;-75
2022/10/04 00:26:17;;;;;;;;;;;;;;;9.03;66.21;100738.91;6128262;23;1161;-75
2022/10/04 00:28:45;;;;;;;;;;;;;;;9.00;65.87;100739.31;6100944;23;1897;-75
2022/10/04 00:31:12;;;;;;;;;;;;;;;9.01;66.12;100736.44;6100753;23;1060;-75
2022/10/04 00:33:38;;;;;;;;;;;;;;;8.98;66.27;100744.09;6127645;23;972;-75
2022/10/04 00:36:05;;;;;;;;;;;;;;;8.99;65.87;100743.06;6127933;23;964;-75
2022/10/04 00:38:31;;;;;;;;;;;;;;;8.96;65.74;100741.59;6126922;23;963;-75
2022/10/04 00:40:59;;;;;;;;;;;;;;;8.95;65.88;100739.97;6126654;23;782;-75
2022/10/04 00:43:25;;;;;;;;;;;;;;;8.98;65.76;100733.34;6126879;23;952;-74
2022/10/04 00:45:51;;;;;;;;;;;;;;;8.95;65.83;100736.44;6126932;23;1047;-75
2022/10/04 00:48:18;;;;;;;;;;;;;;;8.94;65.61;100734.78;6128031;23;1897;-74
2022/10/04 00:50:45;;;;;;;;;;;;;;;8.94;65.78;100727.56;6127638;23;992;-74
2022/10/04 00:53:12;;;;;;;;;;;;;;;8.91;65.68;100730.63;6101016;23;956;-74
2022/10/04 00:55:38;;;;;;;;;;;;;;;8.92;65.79;100724.25;6127455;23;1018;-74
2022/10/04 00:58:06;;;;;;;;;;;;;;;8.93;65.72;100730.44;6127520;23;1007;-75
2022/10/04 01:00:32;;;;;;;;;;;;;;;8.93;65.87;100731.28;6126252;23;943;-74
2022/10/04 01:02:59;;;;;;;;;;;;;;;8.93;65.77;100725.91;6101625;23;1043;-76
2022/10/04 01:05:26;;;;;;;;;;;;;;;8.90;65.97;100712.88;6127273;23;1165;-76
2022/10/04 01:07:52;;;;;;;;;;;;;;;8.88;65.75;100701.50;6101156;23;1380;-74
2022/10/04 01:10:19;;;;;;;;;;;;;;;8.87;65.92;100692.63;6100542;23;1938;-74
2022/10/04 01:12:45;;;;;;;;;;;;;;;8.89;65.99;100700.50;6126797;23;991;-74
2022/10/04 01:15:13;;;;;;;;;;;;;;;8.90;65.89;100695.94;6101051;23;1647;-74
2022/10/04 01:17:39;;;;;;;;;;;;;;;8.85;65.53;100693.84;6127777;23;1018;-74
2022/10/04 01:20:06;;;;;;;;;;;;;;;8.82;65.56;100695.13;6100618;23;1668;-75
2022/10/04 01:22:32;;;;;;;;;;;;;;;8.81;65.66;100696.13;6101033;23;952;-74
2022/10/04 01:24:59;;;;;;;;;;;;;;;8.80;65.39;100694.47;6126349;23;979;-75
2022/10/04 01:27:26;;;;;;;;;;;;;;;8.80;65.71;100686.44;6129118;23;1038;-76
2022/10/04 01:29:52;;;;;;;;;;;;;;;8.81;65.68;100687.25;6127936;23;1948;-76
2022/10/04 01:32:19;;;;;;;;;;;;;;;8.78;65.75;100684.97;6128917;23;865;-76
2022/10/04 01:34:45;;;;;;;;;;;;;;;8.75;65.38;100685.38;6129460;23;952;-76
2022/10/04 01:37:13;;;;;;;;;;;;;;;8.76;65.23;100684.34;6103453;23;1205;-75
2022/10/04 01:39:39;;;;;;;;;;;;;;;8.72;65.20;100683.94;6128007;23;948;-75
2022/10/04 01:42:06;;;;;;;;;;;;;;;8.73;65.48;100679.38;6129520;23;1014;-75
2022/10/04 01:44:32;;;;;;;;;;;;;;;8.70;65.44;100677.09;6127635;23;968;-75
2022/10/04 01:46:59;;;;;;;;;;;;;;;8.69;65.40;100668.22;6128378;23;1003;-75
2022/10/04 01:49:25;;;;;;;;;;;;;;;8.68;65.14;100658.53;6129518;23;1901;-75
2022/10/04 01:51:53;;;;;;;;;;;;;;;8.69;64.80;100660.16;6129472;23;999;-75
2022/10/04 01:54:19;;;;;;;;;;;;;;;8.67;65.12;100651.47;6102060;23;1366;-75
2022/10/04 01:56:46;;;;;;;;;;;;;;;8.69;65.40;100648.59;6128778;23;984;-76
2022/10/04 01:59:13;;;;;;;;;;;;;;;8.66;65.44;100644.47;6099011;23;953;-75
2022/10/04 02:01:39;;;;;;;;;;;;;;;8.65;65.28;100645.50;6127702;23;797;-75
2022/10/04 02:04:06;;;;;;;;;;;;;;;8.62;65.41;100646.75;6128160;23;968;-76
2022/10/04 02:06:32;;;;;;;;;;;;;;;8.62;64.82;100649.44;6098316;23;1369;-75
2022/10/04 02:08:59;;;;;;;;;;;;;;;8.62;64.80;100648.59;6099376;23;1928;-75
2022/10/04 02:11:26;;;;;;;;;;;;;;;8.60;65.12;100653.34;6098874;23;1039;-76
2022/10/04 02:13:53;;;;;;;;;;;;;;;8.61;65.00;100653.13;6098908;23;971;-75
2022/10/04 02:16:19;;;;;;;;;;;;;;;8.58;64.84;100647.34;6099152;23;971;-76
2022/10/04 02:18:46;;;;;;;;;;;;;;;8.54;65.02;100644.25;6099587;23;802;-75
2022/10/04 02:21:12;;;;;;;;;;;;;;;8.54;65.07;100646.94;6097502;23;937;-75
2022/10/04 02:23:39;;;;;;;;;;;;;;;8.54;64.84;100646.13;6097827;23;960;-75
2022/10/04 02:26:06;;;;;;;;;;;;;;;8.55;64.91;100637.84;6099917;23;1003;-75
2022/10/04 02:28:32;;;;;;;;;;;;;;;8.53;65.07;100634.56;6097707;23;968;-76
2022/10/04 02:33:43;;;;;;;;;;;;;;;8.52;65.28;100630.19;6096545;23;1008;-76
2022/10/04 02:36:10;;;;;;;;;;;;;;;8.50;65.18;100624.22;6096584;23;1011;-75
2022/10/04 02:38:36;;;;;;;;;;;;;;;8.56;64.78;100625.25;6095800;23;788;-76
2022/10/04 02:41:03;;;;;;;;;;;;;;;8.52;65.09;100614.09;6096004;23;1015;-75
2022/10/04 02:43:29;;;;;;;;;;;;;;;8.51;64.88;100611.63;6097331;23;1425;-76
2022/10/04 02:45:56;;;;;;;;;;;;;;;8.48;64.78;100609.34;6098468;23;995;-76
2022/10/04 02:48:22;;;;;;;;;;;;;;;8.46;64.85;100600.66;6100139;23;972;-75
2022/10/04 02:50:49;;;;;;;;;;;;;;;8.46;64.73;100600.66;6097942;23;1901;-75
2022/10/04 02:53:15;;;;;;;;;;;;;;;8.45;64.83;100596.34;6098850;23;980;-75
2022/10/04 02:55:42;;;;;;;;;;;;;;;8.43;64.96;100593.03;6097297;23;1263;-75
2022/10/04 02:58:08;;;;;;;;;;;;;;;8.44;64.76;100584.75;6098274;23;880;-76
2022/10/04 03:00:35;;;;;;;;;;;;;;;8.43;64.79;100579.59;6097641;23;960;-75
2022/10/04 03:03:02;;;;;;;;;;;;;;;8.40;64.78;100592.41;6099406;23;1003;-75
2022/10/04 03:05:28;;;;;;;;;;;;;;;8.44;65.33;100591.97;6098533;23;987;-76
2022/10/04 03:07:55;;;;;;;;;;;;;;;8.43;65.12;100584.97;6125590;23;1273;-76
2022/10/04 03:10:21;;;;;;;;;;;;;;;8.42;65.41;100586.84;6127361;23;1940;-75
2022/10/04 03:12:48;;;;;;;;;;;;;;;8.41;65.64;100590.53;6127272;23;1034;-76
2022/10/04 03:15:14;;;;;;;;;;;;;;;8.42;65.22;100589.53;6125152;23;980;-76
2022/10/04 03:17:41;;;;;;;;;;;;;;;8.42;65.34;100576.09;6125313;23;968;-77
2022/10/04 03:20:10;;;;;;;;;;;;;;;8.41;65.42;100587.84;6124612;23;971;-76
2022/10/04 03:22:36;;;;;;;;;;;;;;;8.41;65.37;100580.66;6124822;23;999;-77
2022/10/04 03:25:02;;;;;;;;;;;;;;;8.39;65.63;100580.00;6098159;23;944;-74
2022/10/04 03:27:29;;;;;;;;;;;;;;;8.41;65.94;100577.09;6124073;23;1019;-75
2022/10/04 03:29:58;;;;;;;;;;;;;;;8.41;65.52;100572.59;6124755;23;1937;-74
2022/10/04 03:32:24;;;;;;;;;;;;;;;8.41;65.65;100567.22;6124855;23;1008;-74
2022/10/04 03:34:50;;;;;;;;;;;;;;;8.41;65.96;100566.38;6098684;23;1250;-74
2022/10/04 03:37:18;;;;;;;;;;;;;;;8.38;66.09;100562.28;6125479;23;995;-74
2022/10/04 03:39:44;;;;;;;;;;;;;;;8.37;66.18;100557.88;6123463;23;1022;-75
2022/10/04 03:42:11;;;;;;;;;;;;;;;8.41;65.74;100547.59;6122296;23;971;-74
2022/10/04 03:44:37;;;;;;;;;;;;;;;8.39;65.92;100550.50;6124583;23;972;-74
2022/10/04 03:47:04;;;;;;;;;;;;;;;8.41;65.80;100551.13;6123849;23;1011;-74
2022/10/04 03:49:30;;;;;;;;;;;;;;;8.38;65.79;100543.47;6124783;23;1905;-76
2022/10/04 03:51:57;;;;;;;;;;;;;;;8.37;65.85;100538.28;6124558;23;959;-74
2022/10/04 03:54:26;;;;;;;;;;;;;;;8.39;65.82;100544.31;6124620;23;956;-76
2022/10/04 03:56:53;;;;;;;;;;;;;;;8.36;65.83;100536.63;6123697;23;964;-74
2022/10/04 03:59:20;;;;;;;;;;;;;;;8.36;66.10;100544.69;6125464;23;1015;-76
2022/10/04 04:01:46;;;;;;;;;;;;;;;8.35;65.96;100537.66;6123556;23;976;-73
2022/10/04 04:04:14;;;;;;;;;;;;;;;8.35;65.98;100525.06;6124519;23;896;-75
2022/10/04 04:06:42;;;;;;;;;;;;;;;8.37;65.95;100536.41;6123344;23;1344;-74
2022/10/04 04:09:08;;;;;;;;;;;;;;;8.35;65.93;100530.44;6124304;23;1916;-74
2022/10/04 04:11:35;;;;;;;;;;;;;;;8.34;65.98;100531.47;6097676;23;1004;-74
2022/10/04 04:14:01;;;;;;;;;;;;;;;8.36;66.03;100524.03;6098857;23;1408;-73
2022/10/04 04:16:28;;;;;;;;;;;;;;;8.37;65.88;100519.50;6123732;23;971;-75
2022/10/04 04:18:55;;;;;;;;;;;;;;;8.33;66.00;100519.09;6099079;23;1399;-74
2022/10/04 04:21:23;;;;;;;;;;;;;;;8.31;66.04;100512.25;6098158;23;999;-75
2022/10/04 04:23:49;;;;;;;;;;;;;;;8.30;66.12;100511.44;6098680;23;956;-75
2022/10/04 04:26:16;;;;;;;;;;;;;;;8.32;66.13;100511.22;6097412;23;972;-75
2022/10/04 04:28:43;;;;;;;;;;;;;;;8.30;66.15;100507.94;6124886;23;979;-75
2022/10/04 04:31:09;;;;;;;;;;;;;;;8.30;66.09;100499.88;6121029;23;1893;-76
2022/10/04 04:33:36;;;;;;;;;;;;;;;8.31;66.10;100498.84;6098597;23;1008;-74
2022/10/04 04:36:02;;;;;;;;;;;;;;;8.30;66.13;100498.03;6124931;23;1030;-74
2022/10/04 04:38:29;;;;;;;;;;;;;;;8.30;66.13;100491.84;6097719;23;1233;-75
2022/10/04 04:40:56;;;;;;;;;;;;;;;8.29;66.22;100500.91;6123793;23;967;-74
2022/10/04 04:43:22;;;;;;;;;;;;;;;8.30;66.11;100497.22;6098830;23;1284;-75
2022/10/04 04:45:49;;;;;;;;;;;;;;;8.31;66.13;100498.84;6124643;23;1022;-74
2022/10/04 04:48:15;;;;;;;;;;;;;;;8.29;66.06;100495.53;6124675;23;980;-75
2022/10/04 04:50:42;;;;;;;;;;;;;;;8.30;66.17;100489.16;6098129;23;1893;-74
2022/10/04 04:53:09;;;;;;;;;;;;;;;8.29;66.45;100492.84;6097951;23;975;-75
2022/10/04 04:55:35;;;;;;;;;;;;;;;8.29;66.59;100487.47;6097898;23;1601;-75
2022/10/04 04:58:02;;;;;;;;;;;;;;;8.26;66.31;100486.03;6125657;23;975;-74
2022/10/04 05:00:28;;;;;;;;;;;;;;;8.27;66.58;100482.34;6095958;23;1849;-75
2022/10/04 05:02:55;;;;;;;;;;;;;;;8.26;66.31;100485.22;6098365;23;1148;-75
2022/10/04 05:05:21;;;;;;;;;;;;;;;8.27;66.45;100486.88;6123215;23;1022;-75
2022/10/04 05:07:48;;;;;;;;;;;;;;;8.26;66.18;100483.34;6124174;23;1247;-75
2022/10/04 05:10:15;;;;;;;;;;;;;;;8.27;66.51;100478.84;6122661;23;1897;-75
2022/10/04 05:12:41;;;;;;;;;;;;;;;8.27;66.25;100484.19;6124911;23;984;-75
2022/10/04 05:15:08;;;;;;;;;;;;;;;8.29;66.26;100479.44;6123568;23;991;-75
2022/10/04 05:17:34;;;;;;;;;;;;;;;8.27;66.32;100478.84;6124350;23;1150;-75
2022/10/04 05:20:00;;;;;;;;;;;;;;;8.26;66.53;100478.00;6097792;23;1162;-74
2022/10/04 05:22:27;;;;;;;;;;;;;;;8.22;66.54;100463.34;6124229;23;1500;-75
2022/10/04 05:24:55;;;;;;;;;;;;;;;8.26;66.21;100461.88;6123415;23;956;-74
2022/10/04 05:27:21;;;;;;;;;;;;;;;8.24;66.23;100468.53;6124572;23;991;-74
2022/10/04 05:29:49;;;;;;;;;;;;;;;8.24;66.67;100474.72;6124103;23;1929;-74
2022/10/04 05:32:16;;;;;;;;;;;;;;;8.26;66.42;100469.13;6122631;23;991;-74
2022/10/04 05:34:44;;;;;;;;;;;;;;;8.24;66.42;100474.72;6098453;23;964;-74
2022/10/04 05:37:10;;;;;;;;;;;;;;;8.23;66.34;100477.59;6124095;23;1006;-75
2022/10/04 05:39:37;;;;;;;;;;;;;;;8.20;66.36;100466.22;6123590;23;951;-74
2022/10/04 05:42:04;;;;;;;;;;;;;;;8.22;66.62;100467.88;6124038;23;967;-75
2022/10/04 05:44:31;;;;;;;;;;;;;;;8.21;66.77;100456.34;6098015;23;940;-75
2022/10/04 05:46:57;;;;;;;;;;;;;;;8.22;66.75;100449.94;6124617;23;955;-74
2022/10/04 05:49:24;;;;;;;;;;;;;;;8.20;66.34;100452.81;6124231;23;976;-74
2022/10/04 05:51:50;;;;;;;;;;;;;;;8.23;66.85;100442.69;6125127;23;1935;-74
2022/10/04 05:54:17;;;;;;;;;;;;;;;8.22;66.44;100439.19;6122076;23;948;-74
2022/10/04 05:56:45;;;;;;;;;;;;;;;8.21;66.43;100440.25;6123722;23;988;-74
2022/10/04 05:59:11;;;;;;;;;;;;;;;8.19;66.50;100435.06;6123917;23;964;-74
2022/10/04 06:01:37;;;;;;;;;;;;;;;8.19;66.77;100436.94;6121689;23;1019;-75
2022/10/04 06:04:04;;;;;;;;;;;;;;;8.19;66.60;100432.38;6098085;23;1138;-75
2022/10/04 06:06:30;;;;;;;;;;;;;;;8.20;66.80;100427.84;6091982;23;1289;-75
2022/10/04 06:08:57;;;;;;;;;;;;;;;8.18;66.74;100425.38;6095207;23;1003;-75
2022/10/04 06:11:24;;;;;;;;;;;;;;;8.16;66.54;100422.06;6092403;23;1968;-75
2022/10/04 06:13:51;;;;;;;;;;;;;;;8.17;66.54;100426.38;6095941;23;968;-74
2022/10/04 06:16:18;;;;;;;;;;;;;;;8.15;66.84;100423.09;6097477;23;849;-74
2022/10/04 06:18:45;;;;;;;;;;;;;;;8.18;66.63;100419.19;6099530;23;1027;-74
2022/10/04 06:21:12;;;;;;;;;;;;;;;8.16;66.88;100416.69;6099166;23;1031;-75
2022/10/04 06:23:38;;;;;;;;;;;;;;;8.19;66.70;100418.97;6095848;23;948;-75
2022/10/04 06:26:05;;;;;;;;;;;;;;;8.16;66.75;100411.34;6095666;23;979;-74
2022/10/04 06:28:31;;;;;;;;;;;;;;;8.18;66.74;100416.50;6097756;23;972;-74
2022/10/04 06:30:58;;;;;;;;;;;;;;;8.16;67.02;100416.69;6097411;23;1897;-74
2022/10/04 06:33:24;;;;;;;;;;;;;;;8.16;66.89;100415.88;6153650;23;1464;-74
2022/10/04 06:35:51;;;;;;;;;;;;;;;8.17;66.93;100417.53;6185959;23;410;-74
2022/10/04 06:38:19;;;;;;;;;;;;;;;8.18;66.84;100424.56;6187944;23;576;-73
2022/10/04 06:40:45;;;;;;;;;;;;;;;8.16;66.85;100424.75;6187434;23;586;-75
2022/10/04 06:43:12;;;;;;;;;;;;;;;8.18;66.73;100421.88;6185318;23;639;-75
2022/10/04 06:45:38;;;;;;;;;;;;;;;8.17;66.49;100418.34;6175410;23;1094;-74
2022/10/04 06:48:05;;;;;;;;;;;;;;;8.16;66.75;100411.34;6155062;23;983;-74
2022/10/04 06:50:33;;;;;;;;;;;;;;;8.15;67.14;100407.00;6155393;23;1893;-74
2022/10/04 06:52:59;;;;;;;;;;;;;;;8.16;67.18;100407.84;6153242;23;971;-75
2022/10/04 06:55:25;;;;;;;;;;;;;;;8.16;66.70;100410.50;6153776;23;1440;-74
2022/10/04 06:57:52;;;;;;;;;;;;;;;8.16;66.95;100411.34;6155557;23;1113;-74
2022/10/04 07:00:19;;;;;;;;;;;;;;;8.17;67.10;100412.16;6153535;23;983;-73
2022/10/04 07:02:45;;;;;;;;;;;;;;;8.16;66.97;100402.47;6155616;23;991;-74
2022/10/04 07:05:12;;;;;;;;;;;;;;;8.16;66.76;100405.16;6155003;23;935;-75
2022/10/04 07:07:38;;;;;;;;;;;;;;;8.18;66.22;100416.50;6156285;23;1007;-74
2022/10/04 07:10:05;;;;;;;;;;;;;;;8.18;66.53;100408.47;6156018;23;1901;-75
2022/10/04 07:12:31;;;;;;;;;;;;;;;8.16;67.29;100405.97;6156153;23;959;-75
2022/10/04 07:14:59;;;;;;;;;;;;;;;8.17;66.85;100404.09;6156479;23;1002;-75
2022/10/04 07:17:25;;;;;;;;;;;;;;;8.19;66.13;100404.72;6152843;23;1164;-76
2022/10/04 07:19:52;;;;;;;;;;;;;;;8.20;66.61;100407.19;6153170;23;963;-75
2022/10/04 07:22:18;;;;;;;;;;;;;;;8.17;67.07;100406.78;6157153;23;1019;-74
2022/10/04 07:24:46;;;;;;;;;;;;;;;8.21;66.25;100405.38;6155011;23;967;-76
2022/10/04 07:27:12;;;;;;;;;;;;;;;8.19;66.82;100408.25;6157107;23;964;-74
2022/10/04 07:29:38;;;;;;;;;;;;;;;8.18;66.70;100408.47;6157481;23;805;-76
2022/10/04 07:32:04;;;;;;;;;;;;;;;8.22;66.75;100420.41;6156635;23;1994;-77
2022/10/04 07:34:31;;;;;;;;;;;;;;;8.20;67.08;100414.41;6157736;23;984;-76
2022/10/04 07:36:57;;;;;;;;;;;;;;;8.20;66.46;100415.25;6158287;23;893;-74
2022/10/04 07:39:24;;;;;;;;;;;;;;;8.22;66.64;100406.19;6156945;23;944;-74
2022/10/04 07:41:50;;;;;;;;;;;;;;;8.22;66.29;100409.69;6151831;23;960;-76
2022/10/04 07:44:17;;;;;;;;;;;;;;;8.23;66.47;100413.19;6155892;23;948;-75
2022/10/04 07:46:43;;;;;;;;;;;;;;;8.26;66.10;100420.81;6130608;23;1271;-74
2022/10/04 07:49:10;;;;;;;;;;;;;;;8.26;66.03;100415.44;6130078;23;1503;-74
2022/10/04 07:51:38;;;;;;;;;;;;;;;8.26;65.59;100415.44;6156195;23;1897;-75
2022/10/04 07:54:05;;;;;;;;;;;;;;;8.26;66.06;100420.81;6130536;23;1567;-77
2022/10/04 07:56:31;;;;;;;;;;;;;;;8.27;65.80;100414.44;6130734;23;1188;-76
2022/10/04 07:58:58;;;;;;;;;;;;;;;8.28;65.93;100421.44;6156567;23;1010;-75
2022/10/04 08:01:24;;;;;;;;;;;;;;;7.91;65.49;100362.88;6152612;23;995;-75
2022/10/04 08:03:51;;;;;;;;;;;;;;;8.27;65.63;100414.44;6152221;23;971;-74
2022/10/04 08:06:17;;;;;;;;;;;;;;;8.29;65.42;100413.16;6156749;23;801;-74
2022/10/04 08:08:44;;;;;;;;;;;;;;;8.27;65.77;100415.25;6131433;23;979;-73
2022/10/04 08:11:11;;;;;;;;;;;;;;;8.26;65.91;100418.13;6156573;23;1912;-74
2022/10/04 08:13:37;;;;;;;;;;;;;;;8.25;65.42;100417.31;6157092;23;971;-75
2022/10/04 08:16:04;;;;;;;;;;;;;;;8.25;65.40;100417.31;6130071;23;1672;-74
2022/10/04 08:18:31;;;;;;;;;;;;;;;8.26;65.41;100415.44;6131537;23;1326;-74
2022/10/04 08:20:57;;;;;;;;;;;;;;;7.81;65.34;100346.38;6156080;23;931;-75
2022/10/04 08:23:25;;;;;;;;;;;;;;;8.29;65.49;100415.03;6155570;23;950;-74
2022/10/04 08:25:52;;;;;;;;;;;;;;;8.29;65.20;100415.84;6155160;23;939;-76
2022/10/04 08:31:03;;;;;;;;;;;;;;;8.27;65.14;100420.63;6130001;23;1897;-74
2022/10/04 08:33:29;;;;;;;;;;;;;;;8.27;65.35;100412.56;6130503;23;1251;-75
2022/10/04 08:35:56;;;;;;;;;;;;;;;8.25;65.48;100414.63;6156410;23;928;-76
2022/10/04 08:38:22;;;;;;;;;;;;;;;8.26;65.27;100410.91;6156804;23;1014;-75
2022/10/04 08:40:49;;;;;;;;;;;;;;;8.28;65.55;100405.34;6156367;23;876;-76
2022/10/04 08:43:15;;;;;;;;;;;;;;;8.27;65.33;100401.84;6131155;23;920;-76
2022/10/04 08:45:42;;;;;;;;;;;;;;;8.26;65.26;100392.13;6155677;23;1010;-75
2022/10/04 08:48:09;;;;;;;;;;;;;;;8.26;65.09;100394.81;6153530;23;1033;-76
2022/10/04 08:50:36;;;;;;;;;;;;;;;8.26;65.35;100396.66;6154799;23;1901;-76
2022/10/04 08:53:03;;;;;;;;;;;;;;;8.27;65.27;100395.66;6156694;23;994;-76
2022/10/04 08:55:31;;;;;;;;;;;;;;;8.27;65.36;100393.78;6156271;23;825;-75
2022/10/04 09:00:39;;;;;;;;;;;;;;;8.27;65.06;100396.47;6180867;23;1472;-75
2022/10/04 09:03:05;;;;;;;;;;;;;;;8.28;65.09;100398.13;6186539;23;543;-75
2022/10/04 09:05:32;;;;;;;;;;;;;;;8.29;65.23;100396.25;6160594;23;1193;-75
2022/10/04 09:07:58;;;;;;;;;;;;;;;8.28;65.31;100390.06;6185793;23;1278;-75
2022/10/04 09:10:25;;;;;;;;;;;;;;;8.27;65.15;100382.25;6162351;23;1019;-75
2022/10/04 09:12:51;;;;;;;;;;;;;;;8.28;65.54;100392.75;6130825;23;1027;-76
2022/10/04 09:15:18;;;;;;;;;;;;;;;8.29;65.47;100382.84;6156540;23;897;-74
2022/10/04 09:17:45;;;;;;;;;;;;;;;8.29;65.13;100386.34;6153574;23;1223;-75
2022/10/04 09:20:12;;;;;;;;;;;;;;;8.28;65.21;100384.69;6130043;23;968;-77
2022/10/04 09:22:38;;;;;;;;;;;;;;;8.29;65.39;100383.66;6131212;23;975;-76
2022/10/04 09:25:05;;;;;;;;;;;;;;;8.30;65.07;100381.81;6156317;23;975;-76
2022/10/04 09:27:33;;;;;;;;;;;;;;;8.29;65.01;100383.66;6154784;23;1011;-77
2022/10/04 09:29:59;;;;;;;;;;;;;;;8.28;65.22;100373.97;6149000;23;1010;-77
2022/10/04 09:32:26;;;;;;;;;;;;;;;8.29;65.08;100372.94;6127444;23;1901;-77
2022/10/04 09:34:52;;;;;;;;;;;;;;;8.29;65.23;100359.50;6127002;23;1271;-77
2022/10/04 09:37:19;;;;;;;;;;;;;;;8.31;65.42;100372.72;6153589;23;1019;-77
2022/10/04 09:39:45;;;;;;;;;;;;;;;8.31;65.42;100367.38;6125724;23;1538;-77
2022/10/04 09:42:12;;;;;;;;;;;;;;;8.33;65.20;100354.56;6154404;23;1019;-77
2022/10/04 09:44:44;;;;;;;;;;;;;;;8.32;65.15;100352.91;6153727;23;972;-77
2022/10/04 09:47:11;;;;;;;;;;;;;;;8.33;65.43;100347.34;6154130;23;1011;-77
2022/10/04 09:49:38;;;;;;;;;;;;;;;8.31;65.27;100344.03;6157419;23;749;-77
2022/10/04 09:52:04;;;;;;;;;;;;;;;8.33;65.46;100349.19;6129127;23;1897;-77
2022/10/04 09:54:31;;;;;;;;;;;;;;;8.33;65.52;100339.28;6155299;23;900;-77
2022/10/04 09:56:58;;;;;;;;;;;;;;;8.32;65.31;100343.00;6156118;23;963;-77
2022/10/04 09:59:25;;;;;;;;;;;;;;;8.34;65.33;100342.78;6152287;23;1437;-77
2022/10/04 10:01:52;;;;;;;;;;;;;;;8.34;65.34;100343.63;6127256;23;1153;-77
2022/10/04 10:04:18;;;;;;;;;;;;;;;8.35;65.68;100347.13;6129242;23;1188;-77
2022/10/04 10:06:45;;;;;;;;;;;;;;;8.35;65.49;100347.97;6127799;23;1266;-77
2022/10/04 10:09:11;;;;;;;;;;;;;;;8.36;65.64;100354.97;6128926;23;1396;-77
2022/10/04 10:14:22;;;;;;;;;;;;;;;8.39;65.43;100351.91;6154355;23;1002;-77
2022/10/04 10:16:49;;;;;;;;;;;;;;;8.38;65.97;100354.75;6155582;23;963;-75
2022/10/04 10:19:15;;;;;;;;;;;;;;;8.40;65.58;100353.53;6129003;23;1531;-77
2022/10/04 10:21:42;;;;;;;;;;;;;;;8.39;65.40;100346.53;6128924;23;971;-78
2022/10/04 10:24:10;;;;;;;;;;;;;;;8.40;65.90;100337.44;6128568;23;952;-77
2022/10/04 10:26:37;;;;;;;;;;;;;;;8.39;65.58;100335.78;6154430;23;964;-77
2022/10/04 10:29:03;;;;;;;;;;;;;;;8.41;65.81;100339.09;6129371;23;1003;-77
2022/10/04 10:31:30;;;;;;;;;;;;;;;8.41;65.54;100339.09;6128968;23;1909;-77
2022/10/04 10:33:56;;;;;;;;;;;;;;;8.43;65.77;100338.06;6155279;23;836;-77
2022/10/04 10:36:23;;;;;;;;;;;;;;;8.43;65.76;100330.00;6155399;23;1019;-76
2022/10/04 10:38:49;;;;;;;;;;;;;;;8.45;65.62;100327.94;6129163;23;1007;-77
2022/10/04 10:41:18;;;;;;;;;;;;;;;8.56;65.36;100330.78;6154812;23;992;-77
2022/10/04 10:43:45;;;;;;;;;;;;;;;8.47;65.52;100333.91;6128913;23;1201;-77
2022/10/04 10:46:14;;;;;;;;;;;;;;;8.45;66.06;100339.50;6154263;23;1181;-77
2022/10/04 10:48:40;;;;;;;;;;;;;;;8.54;65.54;100335.53;6129552;23;1315;-77
2022/10/04 10:51:09;;;;;;;;;;;;;;;8.52;65.85;100342.16;6129478;23;1934;-76
2022/10/04 10:53:35;;;;;;;;;;;;;;;8.47;65.93;100334.75;6154630;23;944;-77
2022/10/04 10:56:02;;;;;;;;;;;;;;;8.49;66.15;100338.03;6128258;23;1438;-77
2022/10/04 10:58:28;;;;;;;;;;;;;;;8.49;66.05;100329.97;6126945;23;1256;-77
2022/10/04 11:00:56;;;;;;;;;;;;;;;8.50;66.01;100338.84;6098110;23;1748;-77
2022/10/04 11:03:22;;;;;;;;;;;;;;;8.57;65.95;100328.94;6099430;23;940;-77
2022/10/04 11:05:49;;;;;;;;;;;;;;;8.67;65.56;100309.69;6098986;23;1144;-76
2022/10/04 11:08:16;;;;;;;;;;;;;;;8.63;65.90;100304.75;6124915;23;967;-77
2022/10/04 11:10:43;;;;;;;;;;;;;;;8.55;65.84;100302.28;6098862;23;1247;-77
2022/10/04 11:13:09;;;;;;;;;;;;;;;8.53;66.23;100292.78;6125575;23;1901;-77
2022/10/04 11:15:37;;;;;;;;;;;;;;;8.59;66.13;100292.78;6124806;23;975;-77
2022/10/04 11:18:03;;;;;;;;;;;;;;;8.56;66.18;100287.00;6099518;23;992;-77
2022/10/04 11:20:30;;;;;;;;;;;;;;;8.56;66.48;100289.69;6123628;23;1003;-77
2022/10/04 11:22:58;;;;;;;;;;;;;;;8.58;66.30;100287.63;6124842;23;983;-77
2022/10/04 11:25:26;;;;;;;;;;;;;;;8.58;66.51;100291.13;6098932;23;980;-77
2022/10/04 11:27:52;;;;;;;;;;;;;;;8.63;66.26;100287.81;6100024;23;1185;-75
2022/10/04 11:30:22;;;;;;;;;;;;;;;8.61;66.16;100296.06;6124269;23;955;-76
2022/10/04 11:32:48;;;;;;;;;;;;;;;8.65;66.11;100291.13;6123809;23;1905;-77
2022/10/04 11:35:15;;;;;;;;;;;;;;;8.63;66.17;100279.75;6099503;23;1246;-77
2022/10/04 11:37:42;;;;;;;;;;;;;;;8.63;66.42;100277.06;6095458;23;984;-77
2022/10/04 11:40:08;;;;;;;;;;;;;;;8.64;67.19;100274.16;6126453;23;983;-77
2022/10/04 11:42:35;;;;;;;;;;;;;;;8.64;67.58;100268.78;6102458;23;1329;-77
2022/10/04 11:45:01;;;;;;;;;;;;;;;8.68;67.42;100268.34;6126711;23;1007;-77
2022/10/04 11:47:28;;;;;;;;;;;;;;;8.67;67.56;100266.72;6127811;23;991;-77
2022/10/04 11:49:55;;;;;;;;;;;;;;;8.66;67.51;100262.41;6102463;23;1196;-77
2022/10/04 11:52:21;;;;;;;;;;;;;;;8.66;67.48;100270.47;6127716;23;1940;-77
2022/10/04 11:54:48;;;;;;;;;;;;;;;8.69;68.26;100261.97;6126521;23;987;-77
2022/10/04 11:57:14;;;;;;;;;;;;;;;8.69;68.13;100260.09;6102249;23;976;-77
2022/10/04 11:59:41;;;;;;;;;;;;;;;8.70;68.32;100259.06;6116090;23;1367;-77
2022/10/04 12:02:08;;;;;;;;;;;;;;;8.71;67.99;100250.00;6153379;23;822;-77
2022/10/04 12:04:34;;;;;;;;;;;;;;;8.73;68.34;100249.75;6128068;23;1338;-77
2022/10/04 12:07:01;;;;;;;;;;;;;;;8.73;68.09;100242.50;6148718;23;998;-77
2022/10/04 12:09:28;;;;;;;;;;;;;;;8.74;68.86;100230.75;6152985;23;940;-77
2022/10/04 12:14:39;;;;;;;;;;;;;;;8.77;69.11;100232.19;6153549;23;928;-78
2022/10/04 12:17:07;;;;;;;;;;;;;;;8.80;69.13;100234.44;6128544;23;1266;-75
2022/10/04 12:19:36;;;;;;;;;;;;;;;8.81;69.26;100226.16;6154531;23;964;-75
2022/10/04 12:22:02;;;;;;;;;;;;;;;8.82;69.42;100214.41;6156294;23;923;-76
2022/10/04 12:24:31;;;;;;;;;;;;;;;8.81;69.16;100212.72;6126503;23;1360;-78
2022/10/04 12:26:58;;;;;;;;;;;;;;;8.82;69.23;100195.59;6155893;23;916;-78
2022/10/04 12:29:26;;;;;;;;;;;;;;;8.84;69.69;100192.69;6156649;23;995;-77
2022/10/04 12:31:53;;;;;;;;;;;;;;;8.85;69.68;100194.31;6126005;23;1931;-78
2022/10/04 12:34:20;;;;;;;;;;;;;;;8.87;69.52;100192.25;6125572;23;966;-77
2022/10/04 12:36:46;;;;;;;;;;;;;;;8.87;70.05;100193.06;6153631;23;967;-77
2022/10/04 12:39:13;;;;;;;;;;;;;;;8.90;69.76;100202.56;6125874;23;1176;-77
2022/10/04 12:41:39;;;;;;;;;;;;;;;8.91;69.75;100192.63;6124804;23;932;-75
2022/10/04 12:44:06;;;;;;;;;;;;;;;8.92;69.90;100197.81;6152459;23;932;-77
2022/10/04 12:46:33;;;;;;;;;;;;;;;8.94;70.06;100192.19;6122531;23;1324;-78
2022/10/04 12:49:00;;;;;;;;;;;;;;;8.95;70.21;100185.81;6154344;23;971;-78
2022/10/04 12:51:27;;;;;;;;;;;;;;;8.96;70.62;100177.50;6153173;23;1905;-78
2022/10/04 12:53:53;;;;;;;;;;;;;;;8.98;70.52;100174.63;6128638;23;920;-78
2022/10/04 12:56:20;;;;;;;;;;;;;;;9.02;70.41;100183.88;6155743;23;982;-78
2022/10/04 12:58:47;;;;;;;;;;;;;;;9.02;71.32;100181.19;6153541;23;1283;-78
2022/10/04 13:01:13;;;;;;;;;;;;;;;9.02;71.15;100179.31;6125047;23;1181;-78
2022/10/04 13:03:40;;;;;;;;;;;;;;;9.04;71.81;100188.00;6154497;23;962;-78
2022/10/04 13:06:07;;;;;;;;;;;;;;;9.05;71.64;100189.63;6155618;23;872;-78
2022/10/04 13:08:33;;;;;;;;;;;;;;;9.07;71.98;100184.06;6154768;23;864;-77
2022/10/04 13:11:00;;;;;;;;;;;;;;;9.07;71.58;100186.75;6127062;23;1346;-78
2022/10/04 13:13:28;;;;;;;;;;;;;;;9.10;71.77;100180.94;6153762;23;1897;-78